Portada
METAR-TAF:

METAR-TAF

Aeropuertos :

Yakutsk, Rusia

Aeropuerto de Yakutsk

latitud: 62-01N, longitud: 129-43E, altitud: 103 m

Observación

El informe se hizo hace 33 minutos, a las 09:30 UTC
Viento 6 kt del norte
Temperatura 10°C
Humedad 40%
Presión 1018 hPa
Visibilidad 10 km o más
sin nubes por debajo de 1500 m y sin presencia de cumulonimbus.

METAR: UEEE 230930Z 01003MPS CAVOK 10/M03 Q1018 R23L/09//60 NOSIG RMK QFE755

Hora: 19:03 (10:03 UTC)

Pronóstico

El informe se hizo hace 2 horas y 3 minutos, a las 08:00 UTC
Pronóstico válido del 23 a las 09 UTC al 24 a las 15 UTC
Viento 6 kt del norte-noreste con ráfagas de 16 kt
Visibilidad 10 km o más
sin nubes por debajo de 1500 m y sin presencia de cumulonimbus.

TAF: UEEE 230800Z 2309/2415 02003G08MPS CAVOK

Observaciones y pronósticos meteorológicos de más de 4000 aeropuertos (mensajes METAR y TAF).

Los puntos amarillos y rojos representan las estaciones disponibles.

Ponga el ratón en el punto deseado para ver el nombre de la estación.

Haga clic para ver las observaciones y los pronósticos meteorológicos.

Para cambiar el mapa : haga clic en los botones verdes con una cruz de color negro para hacer un zoom, en el botón verde con un guión para alejar o en las flechas verdes para mapas adyacentes.


METAR-TAF: